4ND4 weather

Public forecast

Using degrees Fahrenheit for public forecast. Weather courtesy of forecast.io.

Closest aviation weather report (METAR) to Pfau Private Airport

Closest report is Minot Air Force Base, 21.0 nm (38.9 km) WSW. Retrieved 2020/08/13 16:56 UTC (53 minutes ago):

KMIB 131656Z AUTO 32009KT 10SM FEW160 22/19 A2980 RMK AO2 SLP090 T02230192

Closest aviation forecast (TAF) to Pfau Private Airport

Forecast is more than 6 hours old.

Closest forecast is Minot Air Force Base, 21.0 nm (38.9 km) WSW. Retrieved 2020/08/13 10:21 UTC (7 hours ago):

TAF COR KMIB 131013Z 1310/1415 12012KT 6000 BR BKN002 QNH2967INS BECMG 1311/1312 13015G20KT 8000 -SHRA BKN005 QNH2970INS BECMG 1316/1317 34009KT 9999 NSW FEW050 QNH2973INS BECMG 1323/1324 VRB06KT 9999 BKN150 QNH2977INS BECMG 1409/1410 VRB15G20KT 8000 -RA VCTS BKN050CB OVC090 QNH2987INS TX29/1321Z TN20/1312Z